createdAt,value
2018-11-13T00:00:21.452Z,68.48
2018-11-13T00:02:50.885Z,68.84
2018-11-13T00:05:19.772Z,68.53
2018-11-13T00:07:48.455Z,68.60
2018-11-13T00:10:17.127Z,69.10
2018-11-13T00:12:45.849Z,69.88
2018-11-13T00:15:14.593Z,69.41
2018-11-13T00:17:43.355Z,70.19
2018-11-13T00:20:14.525Z,70.19
2018-11-13T00:22:43.845Z,69.63
2018-11-13T00:25:14.718Z,70.24
2018-11-13T00:27:43.959Z,69.10
2018-11-13T00:30:15.698Z,69.17
2018-11-13T00:32:44.830Z,70.20
2018-11-13T00:35:14.485Z,70.32
2018-11-13T00:37:43.604Z,70.51
2018-11-13T00:40:13.182Z,70.58
2018-11-13T00:42:42.949Z,71.06
2018-11-13T00:45:11.687Z,71.19
2018-11-13T00:47:40.418Z,71.05
2018-11-13T00:50:10.797Z,71.30
2018-11-13T00:52:39.518Z,71.16
2018-11-13T00:55:08.454Z,71.12
2018-11-13T00:57:37.329Z,70.76
2018-11-13T01:00:14.197Z,69.35
2018-11-13T01:02:43.103Z,70.28
2018-11-13T01:05:13.575Z,70.43
2018-11-13T01:07:43.144Z,71.14
2018-11-13T01:10:13.410Z,69.26
2018-11-13T01:12:42.913Z,70.71
2018-11-13T01:15:13.326Z,70.39
2018-11-13T01:17:42.716Z,68.31
2018-11-13T01:20:11.489Z,68.45
2018-11-13T01:22:40.249Z,68.68
2018-11-13T01:25:10.145Z,67.82
2018-11-13T01:27:38.887Z,68.27
2018-11-13T01:30:10.767Z,68.05
2018-11-13T01:32:40.584Z,67.37
2018-11-13T01:35:11.802Z,68.10
2018-11-13T01:37:40.550Z,68.64
2018-11-13T01:40:10.787Z,69.08
2018-11-13T01:42:39.781Z,68.96
2018-11-13T01:45:10.154Z,69.70
2018-11-13T01:47:38.976Z,69.39
2018-11-13T01:50:08.262Z,68.61
2018-11-13T01:52:37.396Z,69.00
2018-11-13T01:55:07.733Z,69.19
2018-11-13T01:57:36.578Z,69.23
2018-11-13T02:00:16.793Z,69.38
2018-11-13T02:02:46.822Z,69.55
2018-11-13T02:05:15.709Z,70.31
2018-11-13T02:07:44.399Z,69.79
2018-11-13T02:10:13.056Z,69.22
2018-11-13T02:12:41.834Z,70.36
2018-11-13T02:15:10.721Z,70.12
2018-11-13T02:17:39.548Z,70.26
2018-11-13T02:20:15.619Z,69.44
2018-11-13T02:22:44.592Z,70.26
2018-11-13T02:25:14.721Z,71.88
2018-11-13T02:27:43.756Z,70.85
2018-11-13T02:30:14.561Z,71.46
2018-11-13T02:32:43.801Z,71.52
2018-11-13T02:35:13.007Z,70.57
2018-11-13T02:37:41.860Z,71.18
2018-11-13T02:40:10.692Z,71.53
2018-11-13T02:42:39.575Z,72.11
2018-11-13T02:45:10.381Z,72.10
2018-11-13T02:47:39.264Z,72.76
2018-11-13T02:50:09.726Z,72.97
2018-11-13T02:52:39.088Z,73.57
2018-11-13T02:55:08.245Z,72.58
2018-11-13T02:57:36.965Z,72.65
2018-11-13T03:00:14.739Z,73.55
2018-11-13T03:02:43.484Z,73.43
2018-11-13T03:05:14.665Z,73.40
2018-11-13T03:07:43.438Z,73.07
2018-11-13T03:10:13.831Z,74.39
2018-11-13T03:12:42.601Z,73.33
2018-11-13T03:15:12.688Z,73.22
2018-11-13T03:17:41.473Z,72.80
2018-11-13T03:20:12.620Z,73.53
2018-11-13T03:22:41.844Z,72.73
2018-11-13T03:25:13.136Z,72.57
2018-11-13T03:27:41.850Z,73.22
2018-11-13T03:30:16.317Z,72.71
2018-11-13T03:32:45.378Z,72.75
2018-11-13T03:35:14.185Z,73.39
2018-11-13T03:37:43.072Z,73.24
2018-11-13T03:40:12.625Z,72.50
2018-11-13T03:42:41.990Z,72.64
2018-11-13T03:45:11.704Z,72.54
2018-11-13T03:47:40.440Z,73.01
2018-11-13T03:50:14.466Z,73.84
2018-11-13T03:52:43.639Z,74.12
2018-11-13T03:55:13.025Z,73.72
2018-11-13T03:57:42.638Z,73.76
2018-11-13T04:00:13.804Z,74.31
2018-11-13T04:02:42.713Z,74.28
2018-11-13T04:05:13.503Z,74.01
2018-11-13T04:07:43.472Z,73.56
2018-11-13T04:10:13.409Z,73.63
2018-11-13T04:12:42.357Z,74.21
2018-11-13T04:15:12.924Z,74.14
2018-11-13T04:17:41.692Z,73.71
2018-11-13T04:20:12.401Z,73.86
2018-11-13T04:22:41.430Z,73.66
2018-11-13T04:25:10.262Z,73.77
2018-11-13T04:27:39.034Z,74.71
2018-11-13T04:30:12.505Z,73.95
2018-11-13T04:32:41.704Z,74.42
2018-11-13T04:35:12.150Z,74.18
2018-11-13T04:37:40.867Z,74.40
2018-11-13T04:40:14.037Z,74.99
2018-11-13T04:42:44.181Z,74.87
2018-11-13T04:45:14.280Z,75.05
2018-11-13T04:47:43.876Z,74.60
2018-11-13T04:50:14.023Z,74.70
2018-11-13T04:52:43.108Z,74.28
2018-11-13T04:55:12.365Z,74.74
2018-11-13T04:57:42.049Z,74.42
2018-11-13T05:00:13.073Z,74.69
2018-11-13T05:02:42.477Z,74.42
2018-11-13T05:05:12.464Z,74.32
2018-11-13T05:07:41.493Z,74.26
2018-11-13T05:10:12.267Z,73.85
2018-11-13T05:12:42.254Z,73.89
2018-11-13T05:15:11.285Z,73.89
2018-11-13T05:17:40.925Z,74.49
2018-11-13T05:20:10.766Z,74.30
2018-11-13T05:22:39.509Z,74.75
2018-11-13T05:25:10.563Z,74.71
2018-11-13T05:27:39.505Z,74.71
2018-11-13T05:30:11.643Z,74.69
2018-11-13T05:32:40.474Z,74.65
2018-11-13T05:35:11.828Z,74.73
2018-11-13T05:37:41.439Z,75.02
2018-11-13T05:40:12.541Z,76.13
2018-11-13T05:42:41.213Z,74.30
2018-11-13T05:45:11.545Z,75.50
2018-11-13T05:47:40.346Z,74.03
2018-11-13T05:50:11.023Z,74.17
2018-11-13T05:52:40.133Z,74.24
2018-11-13T05:55:09.345Z,74.67
2018-11-13T05:57:38.159Z,75.36
2018-11-13T06:00:14.712Z,75.13
2018-11-13T06:02:43.449Z,75.51
2018-11-13T06:05:12.745Z,75.08
2018-11-13T06:07:41.586Z,75.66
2018-11-13T06:10:11.361Z,75.91
2018-11-13T06:12:40.090Z,75.72
2018-11-13T06:15:09.133Z,75.29
2018-11-13T06:17:37.753Z,74.91
2018-11-13T06:20:08.333Z,75.77
2018-11-13T06:22:37.045Z,75.16
2018-11-13T06:25:06.763Z,75.11
2018-11-13T06:27:35.530Z,74.98
2018-11-13T06:30:08.267Z,74.70
2018-11-13T06:32:36.983Z,74.77
2018-11-13T06:35:05.873Z,75.25
2018-11-13T06:37:34.605Z,75.35
2018-11-13T06:40:03.416Z,75.05
2018-11-13T06:42:32.089Z,74.87
2018-11-13T06:45:00.789Z,75.30
2018-11-13T06:47:29.500Z,74.43
2018-11-13T06:49:58.257Z,75.01
2018-11-13T06:52:27.078Z,73.79
2018-11-13T06:55:14.740Z,74.14
2018-11-13T06:57:44.086Z,74.00
2018-11-13T07:00:12.764Z,73.63
2018-11-13T07:02:41.390Z,73.83
2018-11-13T07:05:11.982Z,73.44
2018-11-13T07:10:40.309Z,72.45
2018-11-13T07:13:08.981Z,72.95
2018-11-13T07:15:37.766Z,72.43
2018-11-13T07:18:06.503Z,72.39
2018-11-13T07:20:35.849Z,71.70
2018-11-13T07:23:04.580Z,72.13
2018-11-13T07:25:33.581Z,71.54
2018-11-13T07:28:02.384Z,72.20
2018-11-13T07:30:31.040Z,72.10
2018-11-13T07:32:59.857Z,70.72
2018-11-13T07:35:28.572Z,71.28
2018-11-13T07:37:59.951Z,71.30
2018-11-13T07:40:28.751Z,71.47
2018-11-13T07:42:57.538Z,70.39
2018-11-13T07:45:26.230Z,70.87
2018-11-13T07:47:55.188Z,70.70
2018-11-13T07:50:24.230Z,70.05
2018-11-13T07:52:52.950Z,69.77
2018-11-13T07:55:21.821Z,68.84
2018-11-13T07:57:50.497Z,68.72
2018-11-13T08:00:20.982Z,68.46
2018-11-13T08:02:50.984Z,68.42
2018-11-13T08:05:19.678Z,68.23
2018-11-13T08:07:48.442Z,67.68
